Nos coordonnées

Nous sommes à votre écoute du lundi au dimanche de 10:00 à 19:00 au :

+32 (0)495 19 89 53

 

Adresse d'exploitation Adresse de facturation
Chaussée de Nivelles, 629
6230 Buzet
Belgique
Kouter 107/2
9000 Gent
Belgique

contact @ blackhelicopters.be (n'oubliez pas de supprimer les espaces)


Nous retrouver

Il est très fortement conseillé de nous appeler avant de venir sur le terrain, nous pouvons être en mission ou en vol!

 

La carte ci-dessous est interactive, cherchez vos itinéraires, déplacez la pour vous retrouver.

News

Votre panier

Le panier est vide

Météo Charleroi

METAR
EBCI 201150Z 20015G28KT 9999 FEW008 BKN018 08/05 Q1015 TEMPO 3000 -DZ BKN010 =
EBCI 201110Z 2012/2118 21015G25KT 9999 SCT015 BKN030 TEMPO 2016/2020 23022G35KT 3000 RA SHRA BKN012TCU BECMG 2018/2020 28015G25KT BECMG 2021/2023 26009KT PROB30 TEMPO 2112/2118 23015G25KT
TAF
EBCI 201110Z 2012/2118 21015G25KT 9999 SCT015 BKN030 TEMPO 2016/2020 23022G35KT 3000 RA SHRA BKN012TCU BECMG 2018/2020 28015G25KT BECMG 2021/2023 26009KT PROB30 TEMPO 2112/2118 23015G25KT =
Lever / Coucher : 06:44 / 17:08 UTC (Buzet 2020-02-20)